Thunder radar more information blitzortung!


Radar de pluja more information rain snow radar


Visita la nostra xarxa de llocs de meteo:

Template documentation
and downloads

And another site



No particular awareness of the weather is required.    There are no Weather-warnings

Pagina Historial Weather Underground text

Diari Resum Setembre 20, 2017 Unitats:  Imperial    Mètric   Tant
« Previous Dia
SegĂźent Dia »
Diari Setmana Mensual Anual Personalitzada
  Maxima: Minima: Media:
Temperatura: 73.2 °F 53.1 °F 65.1 °F
Punt de rosada: 54.9 °F 44.1 °F 48.9 °F
Humitat: 76 % 44 % 57 %
Wind Speed: 10.7 mph 0 mph 3.6 mph
RĂ fegues de vent: 10.7 mph - -
Vent:- - ESE
Pression baro: 30.2 in 30 in -
Precipitacions: 0 in    
Historical Graphs
 
 
Dades de taula per Setembre 20, 2017
Temps Temperatura Punt de rosada Pression baro Vent Wind Speed RĂ fegues de vent Humitat Rainfall Rate (Hourly)
00:00 55.8 °F 47.7 °F 30.1 in Calm   2 mph 74 % 0 in
00:02 61 °F 48.7 °F 30.1 in Calm     64 % 0 in
00:10 55.8 °F 47.7 °F 30.1 in NNW 1 mph 3 mph 74 % 0 in
00:20 55.4 °F 47.1 °F 30.1 in NW 1 mph 2 mph 74 % 0 in
00:30 55.9 °F 47.5 °F 30.1 in NNE 5 mph 5 mph 73 % 0 in
00:40 56.7 °F 47.7 °F 30.1 in NNE 5 mph 7 mph 72 % 0 in
00:50 56.3 °F 47.5 °F 30.1 in NNE 3 mph 5 mph 72 % 0 in
01:00 56.1 °F 47.7 °F 30.1 in NNE 6 mph 6 mph 73 % 0 in
01:10 55.8 °F 47.1 °F 30.1 in NNE 2 mph 5 mph 73 % 0 in
01:20 55.2 °F 46.8 °F 30.1 in NNE 3 mph 4 mph 73 % 0 in
01:30 54.9 °F 46.4 °F 30.1 in Calm   4 mph 73 % 0 in
01:40 54.3 °F 46.2 °F 30.1 in Calm   1 mph 74 % 0 in
01:50 53.8 °F 45.7 °F 30.1 in Calm   2 mph 74 % 0 in
02:00 53.4 °F 45.3 °F 30.1 in SW 2 mph 2 mph 74 % 0 in
02:10 53.8 °F 46 °F 30.1 in WSW 1 mph 1 mph 75 % 0 in
02:20 53.8 °F 46.4 °F 30.1 in Calm   1 mph 76 % 0 in
02:30 53.6 °F 46.2 °F 30.2 in Calm     76 % 0 in
02:40 53.4 °F 46 °F 30.1 in Calm   1 mph 76 % 0 in
02:50 53.2 °F 45.9 °F 30.1 in Calm   1 mph 76 % 0 in
03:00 53.1 °F 45.3 °F 30.1 in Calm   2 mph 75 % 0 in
03:10 53.1 °F 45.3 °F 30.1 in Calm   1 mph 75 % 0 in
03:20 54 °F 45.9 °F 30.1 in Calm     74 % 0 in
03:30 55.4 °F 47.7 °F 30.1 in SW 1 mph 2 mph 75 % 0 in
03:40 55.2 °F 46.8 °F 30.1 in ENE 1 mph 3 mph 73 % 0 in
03:50 56.1 °F 47.1 °F 30.1 in NE 3 mph 4 mph 72 % 0 in
04:00 57.2 °F 47.5 °F 30.2 in NNE 1 mph 3 mph 70 % 0 in
04:10 58.5 °F 47.8 °F 30.1 in NNE 1 mph 2 mph 68 % 0 in
04:20 58.1 °F 46.8 °F 30.1 in North 1 mph 2 mph 66 % 0 in
04:30 57.9 °F 46.6 °F 30.1 in NNE 3 mph 4 mph 66 % 0 in
04:40 57.6 °F 45.5 °F 30.1 in NNE 3 mph 4 mph 64 % 0 in
04:50 58.5 °F 46.8 °F 30.1 in Calm   4 mph 65 % 0 in
05:00 60.1 °F 48.4 °F 30.1 in NE 2 mph 3 mph 65 % 0 in
05:10 60.6 °F 48.4 °F 30.1 in NE 2 mph 3 mph 64 % 0 in
05:20 61.5 °F 48.7 °F 30.1 in NE 2 mph 4 mph 63 % 0 in
10:30 63.5 °F 49.5 °F 30.1 in NNE 3.5 mph 3.5 mph 60 % 0 in
10:35 63.3 °F 48.7 °F 30.1 in NNE 4.6 mph 4.6 mph 59 % 0 in
10:40 63.9 °F 49.3 °F 30.1 in ENE 3.5 mph 3.5 mph 59 % 0 in
10:45 64.8 °F 50.2 °F 30.1 in NNE 4 mph 4 mph 59 % 0 in
10:50 65.1 °F 50 °F 30.1 in NNE 4.9 mph 4.9 mph 58 % 0 in
10:55 64.9 °F 49.3 °F 30.1 in NNE 4.6 mph 4.6 mph 57 % 0 in
11:00 64.9 °F 49.3 °F 30.1 in NNE 4.6 mph 4.6 mph 57 % 0 in
11:05 65.5 °F 50.4 °F 30.2 in NNE 4.6 mph 4.6 mph 58 % 0 in
11:10 65.7 °F 50.5 °F 30.2 in ESE 5.8 mph 5.8 mph 58 % 0 in
11:15 65.5 °F 50.4 °F 30.2 in ESE 4.3 mph 4.3 mph 58 % 0 in
11:20 65.5 °F 50.4 °F 30.1 in ENE 5.8 mph 5.8 mph 58 % 0 in
11:25 66.6 °F 51.3 °F 30.1 in NNE 2.4 mph 2.4 mph 58 % 0 in
11:30 66.9 °F 51.6 °F 30.1 in East 5.8 mph 5.8 mph 58 % 0 in
11:35 66.6 °F 51.8 °F 30.1 in ENE 5.4 mph 5.4 mph 59 % 0 in
11:40 66.9 °F 52.2 °F 30.1 in NNE 3.5 mph 3.8 mph 59 % 0 in
11:45 67.1 °F 52.7 °F 30.1 in NNE 5.9 mph 5.9 mph 60 % 0 in
11:50 67.3 °F 52.5 °F 30.1 in SSE 5.8 mph 5.8 mph 59 % 0 in
11:55 68 °F 53.1 °F 30.1 in ESE 5.8 mph 5.8 mph 59 % 0 in
12:00 68 °F 52.7 °F 30.1 in NNE 6.9 mph 6.9 mph 58 % 0 in
12:05 68 °F 53.1 °F 30.1 in East 10.4 mph 10.4 mph 59 % 0 in
12:10 68.2 °F 53.2 °F 30.1 in SE 9.2 mph 9.2 mph 59 % 0 in
12:11 68.2 °F 53.2 °F 30.1 in ESE 8.1 mph 8.1 mph 59 % 0 in
12:16 68.4 °F 53.1 °F 30.1 in ENE 5.8 mph 5.8 mph 58 % 0 in
12:21 68.9 °F 53.4 °F 30.1 in NE 6.9 mph 6.9 mph 58 % 0 in
12:26 68.9 °F 53.4 °F 30.1 in SSE 4.6 mph 4.6 mph 58 % 0 in
12:31 69.4 °F 54 °F 30.1 in ENE 4.6 mph 4.6 mph 58 % 0 in
12:36 69.6 °F 54.1 °F 30.1 in SE 4.6 mph 4.6 mph 58 % 0 in
12:41 69.3 °F 53.4 °F 30.1 in SSE 5.9 mph 5.9 mph 57 % 0 in
12:46 70.9 °F 54.9 °F 30.1 in SSW 5.8 mph 5.8 mph 57 % 0 in
12:51 69.8 °F 52.9 °F 30.1 in ESE 6.9 mph 6.9 mph 55 % 0 in
12:56 68.9 °F 52.5 °F 30.1 in ESE 5.8 mph 5.8 mph 56 % 0 in
13:01 69.4 °F 53.1 °F 30.1 in SSE 4 mph 4 mph 56 % 0 in
13:06 69.8 °F 53.4 °F 30.1 in West 5.8 mph 5.8 mph 56 % 0 in
13:11 69.4 °F 52.5 °F 30.1 in ENE 3.5 mph 3.5 mph 55 % 0 in
13:16 70.3 °F 53.4 °F 30.1 in East 5.8 mph 5.8 mph 55 % 0 in
13:21 70.3 °F 52.3 °F 30.1 in WSW 5.8 mph 5.8 mph 53 % 0 in
13:26 70.5 °F 52.5 °F 30.1 in ENE 6.4 mph 6.4 mph 53 % 0 in
13:31 70.9 °F 53.4 °F 30.1 in ESE 9.2 mph 9.2 mph 54 % 0 in
13:36 70.9 °F 52.9 °F 30.1 in ESE 6.9 mph 6.9 mph 53 % 0 in
13:41 71.1 °F 52.5 °F 30.1 in SE 8.1 mph 8.1 mph 52 % 0 in
13:46 71.6 °F 53.6 °F 30.1 in ESE 9.2 mph 9.2 mph 53 % 0 in
13:51 72.1 °F 53.4 °F 30.1 in ESE 5.8 mph 5.8 mph 52 % 0 in
13:56 71.1 °F 52.5 °F 30.1 in ESE 8.1 mph 8.1 mph 52 % 0 in
14:01 70.3 °F 52 °F 30.1 in East 6.9 mph 6.9 mph 52 % 0 in
14:02 70.7 °F 52.2 °F 30.1 in NNE 5.8 mph 5.8 mph 52 % 0 in
14:07 71.1 °F 52.5 °F 30.1 in ENE 6.9 mph 6.9 mph 52 % 0 in
14:12 71.6 °F 53.1 °F 30.1 in ENE 8.1 mph 8.1 mph 52 % 0 in
14:17 72.3 °F 53.8 °F 30.1 in ESE 5.8 mph 5.8 mph 52 % 0 in
14:22 71.8 °F 52.7 °F 30.1 in ENE 5.8 mph 5.8 mph 51 % 0 in
14:27 72.1 °F 53.1 °F 30.1 in East 8.1 mph 8.1 mph 51 % 0 in
14:32 72.7 °F 53.4 °F 30.1 in NNE 5.9 mph 5.9 mph 51 % 0 in
14:37 72.7 °F 53.4 °F 30.1 in ESE 4.7 mph 4.7 mph 51 % 0 in
14:42 72.1 °F 52.5 °F 30.1 in South 8.1 mph 8.1 mph 50 % 0 in
14:47 72.5 °F 52.9 °F 30.1 in SE 9.2 mph 9.2 mph 50 % 0 in
14:52 71.8 °F 51.6 °F 30.1 in SSE 8.1 mph 8.1 mph 49 % 0 in
14:57 72.7 °F 52.3 °F 30.1 in SW 5.8 mph 5.8 mph 49 % 0 in
15:02 73.2 °F 52.9 °F 30.1 in East 4 mph 4 mph 49 % 0 in
15:03 73.2 °F 52.9 °F 30.1 in East 4 mph 4 mph 49 % 0 in
15:08 72.7 °F 52.3 °F 30.1 in ESE 8.1 mph 8.1 mph 49 % 0 in
15:13 71.2 °F 51.1 °F 30.1 in ESE 5.9 mph 5.9 mph 49 % 0 in
15:18 72.1 °F 52.5 °F 30.1 in ESE 5.9 mph 5.9 mph 50 % 0 in
15:23 72.1 °F 52 °F 30.1 in SE 6.2 mph 6.2 mph 49 % 0 in
15:28 72.1 °F 52 °F 30.1 in ENE 8.1 mph 8.1 mph 49 % 0 in
15:33 72.1 °F 52 °F 30.1 in ESE 6.9 mph 6.9 mph 49 % 0 in
15:38 72.7 °F 52.3 °F 30.1 in ENE 8.1 mph 8.1 mph 49 % 0 in
15:43 72.9 °F 52.5 °F 30.1 in South 4.6 mph 4.6 mph 49 % 0 in
15:48 72.7 °F 52.3 °F 30.1 in ESE 10.4 mph 10.4 mph 49 % 0 in
15:53 72 °F 51.3 °F 30.1 in SE 5.8 mph 6.4 mph 48 % 0 in
15:58 72.1 °F 52 °F 30.1 in ESE 8.1 mph 8.1 mph 49 % 0 in
16:03 72.5 °F 52.2 °F 30.1 in ESE 8.1 mph 8.1 mph 49 % 0 in
16:08 72.7 °F 52.3 °F 30.1 in East 7.6 mph 7.6 mph 49 % 0 in
16:13 72.7 °F 52.3 °F 30.1 in ENE 9 mph 9 mph 49 % 0 in
16:18 72.5 °F 51.6 °F 30.1 in ESE 8.1 mph 8.1 mph 48 % 0 in
16:23 72.3 °F 51.4 °F 30.1 in ENE 8.1 mph 8.1 mph 48 % 0 in
16:28 72.5 °F 51.6 °F 30.1 in ESE 7.6 mph 7.6 mph 48 % 0 in
16:33 72.1 °F 52 °F 30.1 in East 8.1 mph 8.1 mph 49 % 0 in
16:38 72 °F 51.8 °F 30.1 in ESE 6.9 mph 6.9 mph 49 % 0 in
16:43 71.8 °F 51.6 °F 30.1 in ENE 5.6 mph 5.6 mph 49 % 0 in
16:48 72.5 °F 52.2 °F 30.1 in ENE 6.4 mph 6.4 mph 49 % 0 in
16:53 71.8 °F 51.1 °F 30 in SE 10.7 mph 10.7 mph 48 % 0 in
16:58 71.8 °F 51.1 °F 30 in ESE 8.1 mph 8.1 mph 48 % 0 in
17:03 71.6 °F 50.9 °F 30 in SE 10.4 mph 10.4 mph 48 % 0 in
17:08 71.8 °F 51.1 °F 30.1 in ESE 8.1 mph 8.1 mph 48 % 0 in
17:13 72 °F 51.3 °F 30.1 in SSE 6 mph 6 mph 48 % 0 in
17:18 72.3 °F 51.1 °F 30.1 in ESE 8.1 mph 8.1 mph 47 % 0 in
17:23 72 °F 50.5 °F 30.1 in SW 6.9 mph 6.9 mph 47 % 0 in
17:28 71.6 °F 50.4 °F 30.1 in SSE 3.5 mph 3.5 mph 47 % 0 in
17:33 72 °F 50.5 °F 30.1 in ESE 6 mph 6 mph 47 % 0 in
17:38 71.8 °F 49.8 °F 30.1 in ESE 8.5 mph 8.5 mph 46 % 0 in
17:43 71.4 °F 50.2 °F 30.1 in SE 9.2 mph 9.2 mph 47 % 0 in
17:48 71.6 °F 49.6 °F 30.1 in ESE 5.8 mph 5.8 mph 46 % 0 in
17:53 71.4 °F 49.6 °F 30.1 in ESE 8.1 mph 8.1 mph 46 % 0 in
17:58 71.2 °F 49.5 °F 30.1 in ENE 8.1 mph 8.1 mph 46 % 0 in
18:03 71.1 °F 49.3 °F 30.1 in East 6.9 mph 6.9 mph 46 % 0 in
18:08 71.1 °F 48.6 °F 30.1 in East 5.8 mph 6 mph 45 % 0 in
18:13 70.9 °F 48.6 °F 30.1 in ESE 6.2 mph 6.2 mph 45 % 0 in
18:18 70.7 °F 48.4 °F 30.1 in East 7.1 mph 7.1 mph 45 % 0 in
18:23 70.5 °F 47.5 °F 30 in SE 8.1 mph 8.1 mph 44 % 0 in
18:28 70.5 °F 47.5 °F 30 in SE 5.8 mph 5.8 mph 44 % 0 in
18:33 70.5 °F 47.5 °F 30 in SE 6.9 mph 6.9 mph 44 % 0 in
18:38 70.3 °F 47.5 °F 30 in East 5.9 mph 5.9 mph 44 % 0 in
18:43 70.2 °F 47.1 °F 30 in SE 5.6 mph 5.6 mph 44 % 0 in
18:48 70 °F 47.1 °F 30 in ESE 5.8 mph 5.8 mph 44 % 0 in
18:53 69.8 °F 46.9 °F 30.1 in East 9.2 mph 9.2 mph 44 % 0 in
18:58 69.6 °F 47.3 °F 30.1 in ESE 6.9 mph 6.9 mph 45 % 0 in
19:03 69.4 °F 47.1 °F 30.1 in ESE 4.6 mph 4.6 mph 45 % 0 in
19:08 69.3 °F 46.9 °F 30.1 in East 4.3 mph 4.3 mph 45 % 0 in
19:13 69.1 °F 46.8 °F 30.1 in ESE 4.6 mph 4.6 mph 45 % 0 in
19:18 68.9 °F 46.8 °F 30.1 in ESE 3.3 mph 3.3 mph 45 % 0 in
19:20 60.3 °F 48 °F 30.1 in NNE 1 mph 1 mph 64 % 0 in
19:23 68.9 °F 46 °F 30.1 in ESE 4.6 mph 4.6 mph 44 % 0 in
19:28 68.5 °F 45.9 °F 30.1 in ESE 5.8 mph 5.8 mph 44 % 0 in
19:30 60.4 °F 48.2 °F 30.1 in Calm   2 mph 64 % 0 in
19:33 68.4 °F 45.7 °F 30.1 in ESE 4.6 mph 4.6 mph 44 % 0 in
19:38 68.2 °F 45.3 °F 30.1 in ESE 2.3 mph 2.3 mph 44 % 0 in
19:40 60.1 °F 48.4 °F 30.1 in Calm   1 mph 65 % 0 in
19:43 68 °F 45.3 °F 30.1 in SE 5.8 mph 5.8 mph 44 % 0 in
19:48 67.8 °F 45.1 °F 30.1 in NNE 2.6 mph 2.6 mph 44 % 0 in
19:50 59.5 °F 47.3 °F 30.1 in NW 1 mph 1 mph 64 % 0 in
19:53 67.6 °F 45 °F 30.1 in East 4.6 mph 4.6 mph 44 % 0 in
19:58 67.3 °F 44.6 °F 30.1 in East 3.5 mph 3.5 mph 44 % 0 in
20:00 59.4 °F 47.1 °F 30.1 in Calm     64 % 0 in
20:03 67.1 °F 44.4 °F 30.1 in East 4.6 mph 4.6 mph 44 % 0 in
20:08 67.1 °F 44.4 °F 30.1 in ENE 3.5 mph 3.5 mph 44 % 0 in
20:10 59.2 °F 47.5 °F 30.1 in NNE 1 mph 2 mph 65 % 0 in
20:13 66.9 °F 44.2 °F 30.1 in NE 1.4 mph 1.4 mph 44 % 0 in
20:18 66.7 °F 44.1 °F 30.1 in NNE 1.2 mph 1.2 mph 44 % 0 in
20:20 58.5 °F 46.8 °F 30.1 in NE 1 mph 2 mph 65 % 0 in
20:23 66.6 °F 44.1 °F 30.1 in Calm     44 % 0 in
20:28 66.2 °F 44.2 °F 30.1 in West 1.2 mph 1.2 mph 45 % 0 in
20:30 58.3 °F 46.9 °F 30.1 in Calm   1 mph 66 % 0 in
20:33 65.8 °F 44.4 °F 30.1 in Calm     46 % 0 in
20:38 66 °F 44.6 °F 30.1 in Calm     46 % 0 in
20:40 58.1 °F 46.8 °F 30.1 in Calm     66 % 0 in
20:48 65.5 °F 44.8 °F 30.1 in NE 2.3 mph 2.3 mph 47 % 0 in
20:50 57.6 °F 46.8 °F 30.1 in Calm     67 % 0 in
20:53 65.7 °F 45 °F 30.1 in Calm     47 % 0 in
20:58 65.5 °F 45.3 °F 30.1 in SSW 1.2 mph   48 % 0 in
21:00 57.2 °F 46.8 °F 30.1 in Calm     68 % 0 in
21:03 65.3 °F 45.1 °F 30.1 in Calm     48 % 0 in
21:08 65.1 °F 45.5 °F 30.1 in NE 1.2 mph 1.2 mph 49 % 0 in
21:10 57 °F 46.9 °F 30.1 in Calm     69 % 0 in
21:13 64.9 °F 45.3 °F 30.1 in WNW 1.4 mph   49 % 0 in
21:18 64.8 °F 45.1 °F 30.1 in West 2.3 mph 2.4 mph 49 % 0 in
21:20 56.8 °F 46.8 °F 30.1 in Calm     69 % 0 in
21:23 64.8 °F 45.1 °F 30.1 in NW 1.2 mph 1.2 mph 49 % 0 in
21:28 64.8 °F 45.1 °F 30.1 in Calm     49 % 0 in
21:30 56.7 °F 46.9 °F 30.1 in Calm     70 % 0 in
21:33 64.8 °F 45.1 °F 30.1 in Calm     49 % 0 in
21:38 64.6 °F 45.5 °F 30.1 in Calm     50 % 0 in
21:40 56.5 °F 46.8 °F 30.1 in Calm     70 % 0 in
21:43 64.4 °F 45.3 °F 30.1 in NW 2.3 mph 2.3 mph 50 % 0 in
21:48 64.2 °F 45.1 °F 30.1 in Calm     50 % 0 in
21:50 56.3 °F 46.9 °F 30.1 in Calm     71 % 0 in
21:53 64.2 °F 45.7 °F 30.1 in Calm     51 % 0 in
21:58 64 °F 46 °F 30.1 in Calm     52 % 0 in
22:00 56.1 °F 46.8 °F 30.1 in Calm     71 % 0 in
22:03 64 °F 46 °F 30.1 in Calm     52 % 0 in
22:08 63.9 °F 46.4 °F 30.1 in Calm     53 % 0 in
22:10 56.1 °F 46.8 °F 30.1 in Calm   1 mph 71 % 0 in
22:13 63.9 °F 47.5 °F 30.1 in Calm     55 % 0 in
22:18 63.5 °F 46.9 °F 30.1 in Calm     55 % 0 in
22:20 56.1 °F 47.1 °F 30.1 in Calm     72 % 0 in
22:23 62.8 °F 45.9 °F 30.1 in Calm     54 % 0 in
22:28 62.8 °F 45.9 °F 30.1 in Calm     54 % 0 in
22:30 56.1 °F 47.1 °F 30.1 in Calm     72 % 0 in
22:33 63 °F 46.6 °F 30.1 in Calm     55 % 0 in
22:38 62.8 °F 46.4 °F 30.1 in Calm     55 % 0 in
22:40 56.1 °F 47.1 °F 30.1 in Calm     72 % 0 in
22:43 62.8 °F 46.8 °F 30.1 in Calm     56 % 0 in
22:48 62.6 °F 47.1 °F 30.1 in Calm     57 % 0 in
22:50 56.1 °F 47.1 °F 30.1 in Calm   1 mph 72 % 0 in
22:53 62.4 °F 47.8 °F 30.1 in Calm     59 % 0 in
22:58 62.1 °F 47.1 °F 30.1 in Calm     58 % 0 in
23:00 55.9 °F 47.5 °F 30.1 in SSW 1 mph 1 mph 73 % 0 in
23:03 62.1 °F 47.7 °F 30.1 in WNW 1.6 mph   59 % 0 in
23:08 61.9 °F 47.8 °F 30.1 in Calm     60 % 0 in
23:10 55.9 °F 47.5 °F 30.1 in Calm     73 % 0 in
23:13 61.7 °F 47.7 °F 30.1 in Calm     60 % 0 in
23:18 61.7 °F 48 °F 30.1 in Calm     61 % 0 in
23:20 56.1 °F 47.7 °F 30.1 in Calm     73 % 0 in
23:23 61.7 °F 48.6 °F 30.1 in Calm     62 % 0 in
23:28 61.7 °F 48.6 °F 30.1 in Calm     62 % 0 in
23:30 56.3 °F 48 °F 30.1 in Calm     74 % 0 in
23:33 61.3 °F 48.2 °F 30.1 in NNE 1.2 mph 1.2 mph 62 % 0 in
23:38 61.2 °F 47.7 °F 30.1 in ESE 2.3 mph 2.3 mph 61 % 0 in
23:40 56.3 °F 47.8 °F 30.1 in Calm   2 mph 73 % 0 in
23:43 61.2 °F 48 °F 30.1 in Calm     62 % 0 in
23:48 60.8 °F 47.3 °F 30.1 in NE 1.2 mph 1.2 mph 61 % 0 in
23:50 56.3 °F 48 °F 30.1 in Calm   1 mph 74 % 0 in
23:53 60.6 °F 47.1 °F 30.1 in Calm     61 % 0 in
23:58 60.4 °F 46.9 °F 30.1 in Calm     61 % 0 in
Meteo Sesrovires
Elogis d' Weather Underground - 3.75 mb

Guio original per  Jim McMurry - jmcmurry@mwt.net Adaptat per a la plantilla per  Wim van der Kuil - Leuven-Template.eu

Trobareu la nostra informacio del temps tambe a:

Weather Underground

AWEKAS